Date,TemperatureHighF,TemperatureAvgF,TemperatureLowF,DewpointHighF,DewpointAvgF,DewpointLowF,HumidityHigh,HumidityAvg,HumidityLow,PressureMaxIn,PressureMinIn,WindSpeedMaxMPH,WindSpeedAvgMPH,GustSpeedMaxMPH,PrecipitationSumIn
2013-11-1,73.5,64.2,57.4,57.6,52.9,48.8,95,69,44,29.78,29.66,1,0,3,0.43
2013-11-2,61.0,55.5,43.4,48.0,42.8,37.6,94,64,49,29.96,29.86,5,2,6,0.00
2013-11-3,59.0,47.0,35.8,40.6,35.1,-99.9,90,68,45,30.32,28.30,4,-18,5,0.00
2013-11-4,59.1,46.4,32.2,41.0,35.9,30.0,94,69,47,30.44,30.32,6,1,11,0.00
2013-11-5,67.3,49.0,37.5,46.0,39.7,34.0,90,72,46,30.45,30.32,3,0,0,0.00
2013-11-6,70.4,59.4,48.3,57.0,52.0,39.0,89,77,63,30.35,30.07,7,1,0,0.00
2013-11-7,59.0,50.5,39.9,56.0,45.1,31.0,95,82,62,30.22,29.99,12,3,12,0.10
2013-11-8,53.3,42.0,30.1,31.0,27.1,22.0,85,58,31,30.36,30.22,8,2,0,0.01
2013-11-9,55.6,40.5,27.4,37.0,31.2,25.0,92,72,44,30.36,30.25,2,0,0,0.00
2013-11-10,63.9,48.6,36.3,43.0,36.9,30.0,90,67,38,30.32,30.23,9,1,3,0.00
2013-11-11,67.2,51.8,28.8,36.9,33.0,26.0,90,52,29,30.32,30.17,7,0,7,0.00
2013-11-12,50.6,37.2,27.5,40.0,28.5,16.0,89,71,56,30.48,30.15,24,7,24,0.00
2013-11-13,44.7,33.6,20.6,19.9,17.7,14.0,79,54,35,30.63,30.48,10,2,10,0.00
2013-11-14,60.7,41.8,18.9,27.8,21.0,16.0,89,50,24,30.54,30.34,7,0,7,0.00
2013-11-15,49.2,40.4,28.6,47.0,36.8,21.0,95,87,74,30.35,30.16,3,0,0,0.16
2013-11-16,62.1,54.9,48.2,57.0,52.2,47.0,96,91,81,30.22,30.11,5,1,0,0.04
2013-11-17,64.4,61.2,59.0,63.0,58.0,54.0,96,89,82,30.11,29.87,6,1,0,0.65
2013-11-18,64.4,56.6,46.0,63.0,43.3,32.0,96,64,43,30.06,29.86,9,4,5,0.00
2013-11-19,53.6,43.5,34.8,32.0,29.5,27.0,81,59,41,30.18,30.05,18,3,0,0.00
2013-11-20,55.3,42.8,30.6,35.0,30.3,27.0,87,64,42,30.34,30.18,11,1,0,0.00
2013-11-21,59.0,52.4,44.2,53.0,46.1,31.0,91,79,61,30.37,30.27,9,1,0,0.00
2013-11-22,60.2,56.9,55.1,58.0,55.1,53.0,95,93,90,30.31,30.15,4,0,0,0.07
2013-11-23,56.1,44.1,33.3,55.0,39.9,21.0,95,85,59,30.30,30.12,12,4,0,0.00
2013-11-24,36.6,28.4,21.8,21.0,14.6,11.0,72,58,38,30.51,30.30,16,4,0,0.00
2013-11-25,44.2,34.5,22.0,35.0,19.9,10.0,92,59,26,30.50,30.21,6,1,0,0.11
2013-11-26,47.4,42.2,37.3,46.0,40.8,36.0,95,94,92,30.21,29.70,9,1,0,3.29
2013-11-27,37.0,29.0,23.5,36.0,24.5,16.0,94,83,69,30.28,29.73,14,7,13,0.01
2013-11-28,47.0,29.1,16.8,27.0,20.8,14.0,89,74,43,30.51,30.29,5,0,0,0.01
2013-11-29,53.1,33.4,20.7,32.0,25.4,18.0,92,75,44,30.60,30.48,3,0,0,0.00
2013-11-30,55.2,36.4,26.1,31.0,26.7,23.0,91,71,40,30.56,30.34,3,0,0,0.00